CW5078 Weather Reports


Display with metric or nautical units.
time (UTC)temp
F
wind
direction
speed
MPH
gust
MPH
rain 1hr
in
rain 24hr
in
rain mn
in
humidity
%
barometer
mb
20180618032801 81 217 2.0 8.0 0.00 0.00 0.00 76 1014.9
20180618032301 81 129 3.0 10.0 0.00 0.00 0.00 76 1014.9
20180618031802 81 119 2.0 9.0 0.00 0.00 0.00 76 1014.8
20180618030801 81 157 2.0 8.0 0.00 0.00 0.00 76 1014.6
20180618030302 81 148 2.0 3.0 0.00 0.00 0.00 76 1014.5
20180618025801 81 145 2.0 6.0 0.00 0.00 0.00 76 1014.4
20180618025302 81 184 1.0 3.0 0.00 0.00 0.00 75 1014.4
20180618024802 81 168 2.0 8.0 0.00 0.00 0.00 75 1014.2
20180618024302 81 143 3.0 9.0 0.00 0.00 0.00 75 1014.1
20180618023802 81 126 2.0 7.0 0.00 0.00 0.00 75 1014.1
20180618022302 82 142 3.0 6.0 0.00 0.00 0.00 75 1013.8
20180618021802 82 133 3.0 12.0 0.00 0.00 0.00 75 1013.7
20180618020802 82 87 2.0 5.0 0.00 0.00 0.00 74 1013.8
20180618020302 82 123 2.0 3.0 0.00 0.00 0.00 74 1013.8
20180618015802 82 183 1.0 3.0 0.00 0.00 0.00 74 1013.7
20180618015302 83 96 1.0 3.0 0.00 0.00 0.00 73 1013.7
20180618014802 83 144 2.0 5.0 0.00 0.00 0.00 72 1013.7
20180618014301 83 88 2.0 3.0 0.00 0.00 0.00 72 1013.7
20180618013802 83 70 1.0 3.0 0.00 0.00 0.00 72 1013.7
20180618013302 83 156 1.0 5.0 0.00 0.00 0.00 71 1013.7
20180618012801 84 142 1.0 5.0 0.00 0.00 0.00 71 1013.8
20180618012302 84 169 2.0 5.0 0.00 0.00 0.00 70 1013.8
20180618011802 84 132 1.0 6.0 0.00 0.00 0.00 69 1013.8
20180618011302 84 108 2.0 8.0 0.00 0.00 0.00 68 1013.8
20180618010801 85 191 2.0 6.0 0.00 0.00 0.00 68 1013.8
20180618010302 85 186 1.0 6.0 0.00 0.00 0.00 67 1013.8
20180618005802 85 150 2.0 7.0 0.00 0.00 0.00 66 1013.7
20180618005302 85 130 2.0 7.0 0.00 0.00 0.00 65 1013.7
20180618004302 86 159 2.0 7.0 0.00 0.00 0.00 64 1013.7
20180618003803 86 184 3.0 5.0 0.00 0.00 0.00 63 1013.7
20180618001302 87 138 2.0 10.0 0.00 0.00 0.00 60 1013.2
20180618000302 87 190 3.0 7.0 0.00 0.00 0.00 62 1013.2
20180617235302 88 157 3.0 9.0 0.00 0.00 0.00 63 1013.2
20180617234802 88 168 3.0 8.0 0.00 0.00 0.00 62 1013.2
20180617234302 88 125 3.0 12.0 0.00 0.00 0.00 63 1013.1
20180617233802 88 153 3.0 10.0 0.00 0.00 0.00 62 1013.0
20180617233302 88 169 3.0 9.0 0.00 0.00 0.00 61 1013.0
20180617232802 89 177 3.0 8.0 0.00 0.00 0.00 60 1013.0
20180617232302 89 179 2.0 12.0 0.00 0.00 0.00 60 1012.9
20180617230303 90 138 5.0 12.0 0.00 0.00 0.00 60 1012.7
20180617225802 90 141 3.0 8.0 0.00 0.00 0.00 60 1012.7
20180617225302 90 211 3.0 12.0 0.00 0.00 0.00 60 1012.8
20180617224802 90 147 5.0 13.0 0.00 0.00 0.00 59 1012.9
20180617224303 90 164 2.0 6.0 0.00 0.00 0.00 59 1012.8
20180617223802 90 151 5.0 10.0 0.00 0.00 0.00 59 1012.8
20180617223302 90 124 3.0 7.0 0.00 0.00 0.00 59 1012.8
20180617222802 90 195 5.0 12.0 0.00 0.00 0.00 58 1012.9
20180617222303 90 162 3.0 10.0 0.00 0.00 0.00 59 1012.9
20180617221802 89 145 4.0 20.0 0.00 0.00 0.00 58 1012.9
20180617221302 89 172 4.0 9.0 0.00 0.00 0.00 60 1013.0
20180617220302 89 188 5.0 8.0 0.00 0.00 0.00 63 1013.1
20180617215802 88 175 3.0 10.0 0.00 0.00 0.00 65 1013.1
20180617214803 88 114 2.0 6.0 0.00 0.00 0.00 65 1013.2
20180617214303 88 189 2.0 7.0 0.00 0.00 0.00 64 1013.2
20180617213302 90 129 4.0 13.0 0.00 0.00 0.00 63 1013.3
20180617212803 92 187 3.0 10.0 0.00 0.00 0.00 60 1013.2
20180617212302 94 134 6.0 20.0 0.00 0.00 0.00 54 1013.1
20180617211802 95 140 4.0 10.0 0.00 0.00 0.00 50 1012.8
20180617211303 96 151 5.0 12.0 0.00 0.00 0.00 51 1012.7
20180617210303 95 198 2.0 3.0 0.00 0.00 0.00 54 1012.8
20180617204303 95 96 3.0 10.0 0.00 0.00 0.00 51 1012.8
20180617203802 95 95 3.0 8.0 0.00 0.00 0.00 52 1012.8
20180617202803 96 152 3.0 10.0 0.00 0.00 0.00 51 1012.8
20180617202302 97 105 2.0 5.0 0.00 0.00 0.00 50 1012.8
20180617201803 96 140 2.0 7.0 0.00 0.00 0.00 51 1012.8
20180617200803 96 138 3.0 10.0 0.00 0.00 0.00 52 1012.8
20180617200303 96 72 2.0 7.0 0.00 0.00 0.00 53 1012.8
20180617195802 96 151 4.0 9.0 0.00 0.00 0.00 52 1012.8
20180617195303 96 106 3.0 6.0 0.00 0.00 0.00 51 1012.9
20180617194802 96 104 2.0 3.0 0.00 0.00 0.00 53 1013.0
20180617194303 96 172 1.0 3.0 0.00 0.00 0.00 53 1013.1
20180617193802 96 114 2.0 8.0 0.00 0.00 0.00 52 1013.1
20180617193302 96 201 2.0 6.0 0.00 0.00 0.00 54 1013.2
20180617192802 96 97 3.0 7.0 0.00 0.00 0.00 52 1013.2
20180617191303 93 121 3.0 8.0 0.00 0.00 0.00 54 1013.4
20180617190802 93 95 3.0 8.0 0.00 0.00 0.00 55 1013.4
20180617190303 93 88 3.0 9.0 0.00 0.00 0.00 57 1013.5
20180617185803 93 85 3.0 10.0 0.00 0.00 0.00 56 1013.5
20180617185302 93 86 3.0 8.0 0.00 0.00 0.00 60 1013.6
20180617183803 92 150 3.0 8.0 0.00 0.00 0.00 62 1013.8
20180617183303 92 157 4.0 8.0 0.00 0.00 0.00 61 1013.8
20180617182303 92 210 2.0 5.0 0.00 0.00 0.00 59 1013.8
20180617181303 93 122 2.0 3.0 0.00 0.00 0.00 62 1013.8
20180617180303 93 77 2.0 6.0 0.00 0.00 0.00 54 1014.0
20180617175802 94 144 2.0 6.0 0.00 0.00 0.00 55 1014.0
20180617175303 94 175 3.0 6.0 0.00 0.00 0.00 54 1014.0
20180617174302 93 129 2.0 9.0 0.00 0.00 0.00 57 1014.2
20180617173803 93 87 2.0 6.0 0.00 0.00 0.00 56 1014.2
20180617173303 93 90 4.0 8.0 0.00 0.00 0.00 55 1014.3
20180617171804 93 179 3.0 8.0 0.00 0.00 0.00 58 1014.5
20180617171303 92 165 2.0 7.0 0.00 0.00 0.00 58 1014.5
20180617170303 92 185 2.0 7.0 0.00 0.00 0.00 61 1014.5
20180617165303 92 110 2.0 6.0 0.00 0.00 0.00 60 1014.6
20180617162803 90 123 2.0 3.0 0.00 0.00 0.00 64 1014.8
20180617162303 90 81 3.0 12.0 0.00 0.00 0.00 64 1014.7
20180617160303 90 151 3.0 9.0 0.00 0.00 0.00 62 1014.7
20180617155803 91 140 3.0 8.0 0.00 0.00 0.00 62 1014.7
20180617154304 90 117 2.0 6.0 0.00 0.00 0.00 63 1014.7
20180617153804 89 107 2.0 5.0 0.00 0.00 0.00 65 1014.7
20180617152303 89 82 2.0 6.0 0.00 0.00 0.00 66 1014.6
20180617151803 89 102 3.0 9.0 0.00 0.00 0.00 65 1014.5
20180617151303 89 78 3.0 7.0 0.00 0.00 0.00 65 1014.6
20180617150803 89 53 2.0 6.0 0.00 0.00 0.00 66 1014.6
20180617150303 88 58 2.0 7.0 0.00 0.00 0.00 67 1014.6
20180617145804 88 133 3.0 9.0 0.00 0.00 0.00 68 1014.5
20180617145304 88 166 3.0 9.0 0.00 0.00 0.00 68 1014.5
20180617144303 87 107 2.0 3.0 0.00 0.00 0.00 71 1014.5
20180617143804 86 170 2.0 5.0 0.00 0.00 0.00 74 1014.5
20180617143303 85 146 2.0 7.0 0.00 0.00 0.00 74 1014.6
20180617142803 85 143 3.0 12.0 0.00 0.00 0.00 75 1014.7
20180617142303 84 126 3.0 6.0 0.00 0.00 0.00 76 1014.7
20180617141303 83 174 3.0 6.0 0.00 0.00 0.00 77 1014.8
20180617140804 83 143 2.0 8.0 0.00 0.00 0.00 79 1014.8
20180617140304 82 193 2.0 5.0 0.00 0.00 0.00 80 1014.7
20180617135803 81 101 2.0 7.0 0.00 0.00 0.00 82 1014.7
20180617134803 80 140 2.0 7.0 0.00 0.00 0.00 84 1014.6
20180617134303 80 99 2.0 5.0 0.00 0.00 0.00 85 1014.5
20180617133803 79 107 1.0 3.0 0.00 0.00 0.00 86 1014.5
20180617133303 79 93 2.0 3.0 0.00 0.00 0.00 86 1014.4
20180617132803 79 132 1.0 6.0 0.00 0.00 0.00 88 1014.5
20180617132303 78 83 1.0 3.0 0.00 0.00 0.00 89 1014.5
20180617131803 78 128 1.0 3.0 0.00 0.00 0.00 90 1014.4
20180617131303 77 164 0.0 1.0 0.00 0.00 0.00 91 1014.3
20180617125803 76 77 3.0 7.0 0.00 0.00 0.00 94 1014.3
20180617125304 76 126 1.0 3.0 0.00 0.00 0.00 95 1014.3
20180617124803 75 117 1.0 6.0 0.00 0.00 0.00 95 1014.3
20180617124304 75 75 0.0 3.0 0.00 0.00 0.00 95 1014.2
20180617123803 75 96 0.0 3.0 0.00 0.00 0.00 95 1014.1
20180617123303 75 121 0.0 3.0 0.00 0.00 0.00 95 1014.0
20180617122304 74 146 1.0 3.0 0.00 0.00 0.00 95 1013.9
20180617121804 74 160 0.0 0.0 0.00 0.00 0.00 95 1013.9
20180617121303 73 160 0.0 0.0 0.00 0.00 0.00 95 1013.8
20180617120804 73 160 0.0 0.0 0.00 0.00 0.00 94 1013.7
20180617115803 73 160 0.0 0.0 0.00 0.00 0.00 94 1013.6
20180617114804 73 160 0.0 0.0 0.00 0.00 0.00 94 1013.6
20180617114304 73 160 0.0 0.0 0.00 0.00 0.00 93 1013.7
20180617113804 73 160 0.0 0.0 0.00 0.00 0.00 93 1013.7
20180617113304 73 160 0.0 0.0 0.00 0.00 0.00 93 1013.6
20180617112804 73 160 0.0 0.0 0.00 0.00 0.00 93 1013.5
20180617112305 73 160 0.0 0.0 0.00 0.00 0.00 93 1013.5
20180617111804 73 160 0.0 0.0 0.00 0.00 0.00 93 1013.5
20180617110803 73 160 0.0 0.0 0.00 0.00 0.00 93 1013.4
20180617105305 73 160 0.0 0.0 0.00 0.00 0.00 92 1013.3
20180617104804 73 160 0.0 0.0 0.00 0.00 0.00 92 1013.1
20180617104304 73 160 0.0 0.0 0.00 0.00 0.00 92 1013.1
20180617103304 74 160 0.0 0.0 0.00 0.00 0.00 92 1013.1
20180617102804 74 160 0.0 0.0 0.00 0.00 0.00 92 1013.0
20180617102305 74 160 0.0 0.0 0.00 0.00 0.00 92 1013.1
20180617101804 74 160 0.0 0.0 0.00 0.00 0.00 92 1013.1
20180617101303 74 160 0.0 0.0 0.00 0.00 0.00 92 1013.1
20180617100804 74 160 0.0 0.0 0.00 0.00 0.00 92 1013.1
20180617100304 74 160 0.0 0.0 0.00 0.00 0.00 92 1013.0
20180617095804 74 160 0.0 0.0 0.00 0.00 0.00 91 1013.0
20180617095305 74 160 0.0 0.0 0.00 0.00 0.00 92 1013.0
20180617093804 74 160 0.0 1.0 0.00 0.00 0.00 91 1013.1
20180617093304 74 160 0.0 0.0 0.00 0.00 0.00 91 1013.1
20180617092804 75 160 0.0 1.0 0.00 0.00 0.00 91 1013.1
20180617092306 75 160 0.0 0.0 0.00 0.00 0.00 90 1013.1
20180617091804 75 160 0.0 0.0 0.00 0.00 0.00 90 1013.0
20180617091303 75 160 0.0 0.0 0.00 0.00 0.00 91 1012.9
20180617090304 75 160 0.0 0.0 0.00 0.00 0.00 90 1013.0
20180617085804 75 160 0.0 0.0 0.00 0.00 0.00 90 1013.0
20180617085305 75 160 0.0 0.0 0.00 0.00 0.00 89 1013.0
20180617084804 75 160 0.0 0.0 0.00 0.00 0.00 89 1013.0
20180617084304 76 160 0.0 0.0 0.00 0.00 0.00 89 1013.0
20180617083804 76 160 0.0 0.0 0.00 0.00 0.00 89 1012.9
20180617083304 76 160 0.0 0.0 0.00 0.00 0.00 89 1012.9
20180617082805 76 160 0.0 1.0 0.00 0.00 0.00 88 1012.9
20180617081305 76 160 0.0 0.0 0.00 0.00 0.00 89 1012.8
20180617080304 76 160 0.0 0.0 0.00 0.00 0.00 89 1012.8
20180617075743 77 160 0.0 0.0 0.00 0.00 0.00 89 1012.8
20180617074742 77 160 0.0 0.0 0.00 0.00 0.00 88 1012.8
20180617073242 77 160 0.0 0.0 0.00 0.00 0.00 88 1013.0
20180617072743 77 160 0.0 3.0 0.00 0.00 0.00 88 1013.0
20180617072243 77 160 0.0 3.0 0.00 0.00 0.00 88 1012.9
20180617071742 77 160 0.0 2.0 0.00 0.00 0.00 88 1013.0
20180617071243 77 160 0.0 0.0 0.00 0.00 0.00 88 1013.0
20180617070742 77 160 0.0 2.0 0.00 0.00 0.00 87 1013.0
20180617070242 77 160 0.0 1.0 0.00 0.00 0.00 87 1013.1
20180617065743 77 160 0.0 0.0 0.00 0.00 0.00 87 1013.1
20180617064243 78 160 0.0 1.0 0.00 0.00 0.00 87 1013.2
20180617063742 78 160 0.0 0.0 0.00 0.00 0.00 87 1013.2
20180617063242 78 160 0.0 2.0 0.00 0.00 0.00 87 1013.2
20180617062742 78 160 0.0 0.0 0.00 0.00 0.00 86 1013.2
20180617062242 78 160 0.0 1.0 0.00 0.00 0.00 86 1013.2
20180617061742 78 160 0.0 2.0 0.00 0.00 0.00 86 1013.2
20180617060742 78 160 0.0 1.0 0.00 0.00 0.00 85 1013.2
20180617060242 78 160 0.0 2.0 0.00 0.00 0.00 85 1013.2
20180617055742 78 160 0.0 0.0 0.00 0.00 0.00 84 1013.2
20180617055243 79 160 0.0 0.0 0.00 0.00 0.00 84 1013.2
20180617054743 79 160 0.0 0.0 0.00 0.00 0.00 84 1013.2
20180617054243 79 160 0.0 0.0 0.00 0.00 0.00 84 1013.2
20180617053743 79 160 0.0 1.0 0.00 0.00 0.00 84 1013.2
20180617053242 79 160 1.0 2.0 0.00 0.00 0.00 83 1013.1
20180617052742 79 161 1.0 2.0 0.00 0.00 0.00 83 1013.0
20180617052243 79 161 0.0 2.0 0.00 0.00 0.00 83 1013.0
20180617051243 79 161 1.0 2.0 0.00 0.00 0.00 82 1013.1
20180617050754 80 161 0.0 3.0 0.00 0.00 0.00 82 1013.1
20180617050243 80 170 0.0 0.0 0.00 0.00 0.00 82 1013.2
20180617045742 80 170 0.0 0.0 0.00 0.00 0.00 81 1013.2
20180617045243 80 170 0.0 2.0 0.00 0.00 0.00 81 1013.1
20180617044744 80 170 0.0 2.0 0.00 0.00 0.00 81 1013.1
20180617044243 80 170 1.0 2.0 0.00 0.00 0.00 80 1013.0
20180617043742 80 173 1.0 2.0 0.00 0.00 0.00 80 1013.1
20180617042243 81 168 1.0 2.0 0.00 0.00 0.00 79 1013.1
20180617041743 81 168 0.0 3.0 0.00 0.00 0.00 78 1013.0
20180617041242 81 166 0.0 3.0 0.00 0.00 0.00 78 1013.0
20180617035243 82 186 1.0 2.0 0.00 0.00 0.00 77 1012.9
20180617034743 82 147 1.0 3.0 0.00 0.00 0.00 77 1012.9
20180617034243 82 166 0.0 1.0 0.00 0.00 0.00 77 1012.8
20180617033743 82 166 0.0 2.0 0.00 0.00 0.00 76 1012.8
20180617033243 82 165 1.0 3.0 0.00 0.00 0.00 76 1012.8